Snider, Montana
Current Conditions -  °F | °C
As of 3:27 PM on Thursday 18 Dec 2014 (Local Time) from KMLP Reporting Station
Haze Haze  
Wind Chill: 23°   Ceiling: 200
Heat Index: 29°   Visibility: 1.7mi
Dew Point: 27°   Wind: 6mph
Humidity: 92%   Direction: NA
Pressure: 29.92"   Gusts: NA
Location:  47.6853°N, 115.247°W
Report Text: KMLP 182227Z AUTO VRB05KT 1 3/4SM BR OVC002 M02/M03 A2992 RMK AO2 VIS 1V5 T10171028
Loading
Personal Weather Stations






























Interactive Weather Map New forecast layout! Learn more

10-Day Weather Forecast

Advertisements
Track Severe Weather on mobile